METAR Data
IDs: Format: Raw Decoded Include TAF

Data at: 0201 UTC 12 May 2021

KHHG 120155Z AUTO 32003KT 10SM CLR 07/M02 A3035 RMK AO2 T00651016
KHHG 120135Z AUTO 32003KT 10SM CLR 07/M01 A3034 RMK AO2 T00681014
KHHG 120115Z AUTO 32004KT 10SM CLR 07/M02 A3033 RMK AO2 T00721020
KHHG 120055Z AUTO 32004KT 10SM CLR 08/M02 A3032 RMK AO2 T00791020
KHHG 120035Z AUTO 32005KT 10SM CLR 09/M03 A3032 RMK AO2 T00861026
KHHG 120015Z AUTO 33006KT 10SM CLR 09/M02 A3031 RMK AO2 T00941025
KHHG 112355Z AUTO 34005KT 10SM CLR 10/M03 A3030 RMK AO2 T01001032 10129 20100
KHHG 112335Z AUTO 33007KT 10SM CLR 11/M02 A3029 RMK AO2 T01051025
KHHG 112315Z AUTO 33007KT 10SM CLR 11/M02 A3029 RMK AO2 T01071021
KHHG 112255Z AUTO 33006KT 10SM CLR 11/M02 A3028 RMK AO2 T01111022
KHHG 112235Z AUTO 34008KT 310V010 10SM CLR 12/M01 A3028 RMK AO2 T01151013
KHHG 112215Z AUTO 33008KT 10SM CLR 11/M03 A3028 RMK AO2 T01131027
KHHG 112155Z AUTO 32007KT 10SM CLR 12/M03 A3028 RMK AO2 T01171026
KHHG 112135Z AUTO 33007G16KT 10SM SCT065 12/M02 A3028 RMK AO2 T01191025
KHHG 112115Z AUTO 35011G17KT 10SM SCT065 12/M02 A3027 RMK AO2 T01201025
KHHG 112055Z AUTO 36009KT 320V020 10SM SCT065 12/M02 A3027 RMK AO2 T01161019
KHHG 112035Z AUTO 34012G16KT 10SM SCT065 12/M02 A3027 RMK AO2 T01221017
KHHG 112015Z AUTO 32010G16KT 10SM SCT065 12/M01 A3028 RMK AO2 T01241013
KHHG 111955Z AUTO 34009G15KT 10SM BKN065 12/M01 A3028 RMK AO2 T01201015
KHHG 111935Z AUTO 36008KT 10SM BKN065 12/M01 A3028 RMK AO2 T01211009
KHHG 111915Z AUTO 30007KT 10SM BKN065 12/M01 A3028 RMK AO2 T01211008
KHHG 111900Z AUTO 34006KT 10SM BKN065 12/M02 A3029 RMK AO2 T01151016
KHHG 111835Z AUTO 34009G15KT 10SM BKN060 11/M01 A3030 RMK AO2 T01141010
KHHG 111815Z AUTO 35009G14KT 310V020 10SM BKN060 11/M01 A3031 RMK AO2 T01081012
KHHG 111755Z AUTO 32008G15KT 290V010 10SM BKN060 10/M01 A3032 RMK AO2 T01021014 10114 20044
KHHG 111735Z AUTO 36008KT 330V030 10SM BKN060 BKN070 11/M01 A3032 RMK AO2 T01111007
KHHG 111715Z AUTO 33007KT 10SM BKN060 BKN070 11/M01 A3032 RMK AO2 T01081012
KHHG 111655Z AUTO 35007G16KT 10SM BKN055 BKN070 11/M01 A3032 RMK AO2 T01071006
KHHG 111635Z AUTO 34008G15KT 10SM BKN050 BKN055 11/00 A3032 RMK AO2 T01061004
KHHG 111615Z AUTO 36009G14KT 10SM BKN048 09/M01 A3032 RMK AO2 T00931013
KHHG 111555Z AUTO 35008G15KT 10SM SCT046 10/00 A3032 RMK AO2 T01001004
KHHG 111535Z AUTO 33008KT 310V020 10SM CLR 10/00 A3032 RMK AO2 T00961004
KHHG 111515Z AUTO 35010G14KT 10SM CLR 09/M01 A3032 RMK AO2 T00931006
KHHG 111455Z AUTO 36005KT 10SM CLR 09/M01 A3032 RMK AO2 T00911006
KHHG 111435Z AUTO 36008KT 10SM CLR 08/00 A3032 RMK AO2 T00841002
KHHG 111415Z AUTO 35007KT 10SM CLR 08/00 A3031 RMK AO2 T00821004
KHHG 111355Z AUTO 35006KT 10SM CLR 08/M01 A3031 RMK AO2 T00761009
KHHG 111335Z AUTO 02008KT 10SM CLR 07/M01 A3030 RMK AO2 T00691010
KHHG 111315Z AUTO 01005KT 10SM CLR 07/00 A3030 RMK AO2 T00651005
KHHG 111255Z AUTO 03006KT 10SM CLR 06/M01 A3029 RMK AO2 T00581009
KHHG 111235Z AUTO 01005KT 10SM CLR 06/M01 A3029 RMK AO2 T00551007
KHHG 111215Z AUTO 02007KT 10SM SCT110 05/M01 A3028 RMK AO2 T00521008
KHHG 111155Z AUTO 02004KT 10SM SCT090 OVC110 04/M01 A3029 RMK AO2 70006 T00441010 10063 20033
KHHG 111135Z AUTO 36004KT 10SM OVC110 04/M01 A3028 RMK AO2 T00401007
KHHG 111115Z AUTO 36003KT 10SM OVC120 04/M01 A3027 RMK AO2 T00351006
KHHG 111055Z AUTO 36004KT 10SM OVC120 03/M01 A3026 RMK AO2 T00341007
KHHG 111035Z AUTO 36003KT 10SM SCT090 OVC120 04/M01 A3025 RMK AO2 T00351011
KHHG 111015Z AUTO 36004KT 10SM SCT090 OVC120 04/M01 A3024 RMK AO2 T00361011
KHHG 110955Z AUTO 36003KT 10SM OVC120 04/M01 A3023 RMK AO2 T00401013
KHHG 110935Z AUTO 36005KT 10SM OVC120 04/M01 A3022 RMK AO2 T00411014
KHHG 110915Z AUTO 01005KT 10SM OVC110 04/M01 A3021 RMK AO2 T00421012
KHHG 110855Z AUTO 36004KT 10SM OVC110 04/M01 A3021 RMK AO2 T00441011
KHHG 110835Z AUTO 35005KT 10SM OVC100 05/M01 A3021 RMK AO2 T00451013
KHHG 110815Z AUTO 35005KT 10SM OVC090 05/M01 A3021 RMK AO2 T00471015
KHHG 110755Z AUTO 35004KT 10SM OVC090 05/M02 A3020 RMK AO2 T00501016
KHHG 110735Z AUTO 35004KT 10SM BKN100 05/M02 A3020 RMK AO2 T00511018
KHHG 110715Z AUTO 35004KT 10SM SCT100 SCT120 05/M02 A3019 RMK AO2 T00531021
KHHG 110655Z AUTO 36004KT 10SM BKN090 BKN120 06/M02 A3019 RMK AO2 T00551023
KHHG 110635Z AUTO 35004KT 10SM BKN090 OVC110 06/M02 A3020 RMK AO2 T00561022
KHHG 110615Z AUTO 36006KT 10SM OVC110 06/M02 A3018 RMK AO2 T00601023
KHHG 110555Z AUTO 35005KT 10SM OVC110 06/M02 A3019 RMK AO2 60005 T00631016 10096 20063
KHHG 110535Z AUTO 36006KT 10SM OVC110 07/M01 A3018 RMK AO2 T00671013
KHHG 110515Z AUTO 36007KT 10SM SCT085 OVC110 07/M01 A3018 RMK AO2 T00701008
KHHG 110455Z AUTO 36005KT 10SM BKN080 OVC110 07/00 A3018 RMK AO2 T00720003 401430004
KHHG 110435Z AUTO 00000KT 10SM OVC080 07/01 A3018 RMK AO2 T00730012
KHHG 110415Z AUTO 35003KT 10SM SCT060 OVC080 08/02 A3018 RMK AO2 T00770017
KHHG 110355Z AUTO 34004KT 10SM SCT060 SCT080 OVC090 08/03 A3018 RMK AO2 T00780034
KHHG 110335Z AUTO 35005KT 10SM OVC095 08/04 A3018 RMK AO2 T00800041
KHHG 110315Z AUTO 36006KT 10SM SCT070 OVC095 08/05 A3017 RMK AO2 T00810045
KHHG 110255Z AUTO 36004KT 10SM OVC095 08/06 A3017 RMK AO2 60005 T00810056
KHHG 110235Z AUTO 35004KT 10SM SCT065 OVC095 08/07 A3017 RMK AO2 T00800071
KHHG 110215Z AUTO 00000KT 10SM OVC095 08/07 A3016 RMK AO2 T00800073
KHHG 110155Z AUTO 00000KT 10SM SCT039 SCT046 OVC095 08/07 A3015 RMK AO2 T00800073
KHHG 110135Z AUTO 26003KT 10SM OVC044 08/07 A3015 RMK AO2 T00800073
KHHG 110115Z AUTO 01003KT 10SM BKN044 OVC055 08/07 A3014 RMK AO2 T00800073
KHHG 110055Z AUTO 36004KT 10SM RA BKN046 BKN055 OVC070 08/07 A3015 RMK AO2 P0005 T00780072
KHHG 110035Z AUTO 27008KT 7SM RA BKN042 OVC049 08/07 A3014 RMK AO2 P0004 T00800070
KHHG 110015Z AUTO 26010KT 5SM -RA OVC042 09/07 A3015 RMK AO2 P0001 T00860069
KHHG 102355Z AUTO 27008G15KT 10SM -RA BKN046 OVC050 10/06 A3014 RMK AO2 T00980056 10143 20098
KHHG 102335Z AUTO 26009KT 10SM SCT048 BKN050 OVC090 12/03 A3012 RMK AO2 T01200025
KHHG 102315Z AUTO 27004KT 10SM SCT050 BKN070 OVC100 13/02 A3011 RMK AO2 T01250018
KHHG 102255Z AUTO 30003KT 10SM BKN050 OVC070 13/02 A3011 RMK AO2 T01270017
KHHG 102235Z AUTO 27003KT 10SM OVC050 13/02 A3011 RMK AO2 T01310018
KHHG 102215Z AUTO 27006KT 10SM OVC050 13/02 A3011 RMK AO2 T01310016
KHHG 102155Z AUTO 27005KT 10SM BKN050 13/01 A3011 RMK AO2 T01310013
KHHG 102135Z AUTO 26007G10KT 10SM SCT050 BKN110 14/02 A3011 RMK AO2 T01380020
KHHG 102115Z AUTO 30006KT 10SM BKN100 14/01 A3012 RMK AO2 T01360013
KHHG 102055Z AUTO 27010G15KT 10SM BKN100 13/02 A3012 RMK AO2 T01340015
KHHG 102035Z AUTO 28004KT 10SM SCT100 14/02 A3012 RMK AO2 T01350015
KHHG 102015Z AUTO 26006KT 10SM SCT070 SCT090 BKN110 13/02 A3013 RMK AO2 T01250021
KHHG 101955Z AUTO 32004KT 10SM BKN070 OVC080 12/02 A3012 RMK AO2 T01220016
KHHG 101935Z AUTO 28005KT 10SM SCT050 BKN065 OVC070 12/02 A3013 RMK AO2 T01200021
KHHG 101915Z AUTO 32005KT 10SM BKN050 OVC055 13/02 A3013 RMK AO2 T01250022
KHHG 101855Z AUTO 29006KT 10SM OVC050 13/02 A3013 RMK AO2 T01270017
KHHG 101835Z AUTO 31004KT 10SM BKN050 OVC070 13/02 A3013 RMK AO2 T01250019
KHHG 101815Z AUTO 32007KT 10SM SCT046 BKN060 OVC075 13/02 A3012 RMK AO2 T01300021
KHHG 101755Z AUTO 31005G08KT 10SM SCT046 BKN075 OVC090 13/03 A3012 RMK AO2 T01290025 10137 20041
KHHG 101735Z AUTO 28006KT 10SM BKN075 OVC090 13/02 A3012 RMK AO2 T01340021
KHHG 101715Z AUTO 31007KT 10SM BKN075 BKN090 13/00 A3013 RMK AO2 T01320000
KHHG 101655Z AUTO 23007KT 10SM BKN075 BKN120 13/03 A3013 RMK AO2 T01300027
KHHG 101635Z AUTO 25008G16KT 10SM SCT075 OVC120 13/03 A3013 RMK AO2 T01260031
KHHG 101615Z AUTO 23009G14KT 10SM SCT032 SCT075 OVC120 13/04 A3013 RMK AO2 T01260038
KHHG 101555Z AUTO 25009KT 220V280 10SM SCT032 OVC120 12/05 A3013 RMK AO2 T01220047
KHHG 101535Z AUTO 24008G15KT 10SM BKN120 12/04 A3013 RMK AO2 T01200039
KHHG 101515Z AUTO 27007KT 10SM BKN120 12/04 A3012 RMK AO2 T01170044
KHHG 101455Z AUTO 24007KT 10SM BKN120 11/03 A3012 RMK AO2 T01080032
KHHG 101435Z AUTO 28007KT 10SM SCT120 11/04 A3012 RMK AO2 T01080035
KHHG 101415Z AUTO 28003KT 10SM SCT120 10/04 A3012 RMK AO2 T01010040